Time;durP1;ratioP1;P1;durP2;ratioP2;P2;SDS_P1;SDS_P2;PMS_P1;PMS_P2;Temp;Humidity;BMP_temperature;BMP_pressure;BME280_temperature;BME280_humidity;BME280_pressure;Samples;Min_cycle;Max_cycle;Signal;HPM_P1;HPM_P2
2022/10/11 00:00:44;;;;;;;15.32;5.35;;;;;;;3.33;100.00;100350.88;5171630;27;20134;-47
2022/10/11 00:03:11;;;;;;;12.68;5.43;;;;;;;3.26;100.00;100355.84;5175259;27;20046;-46
2022/10/11 00:05:37;;;;;;;10.40;5.38;;;;;;;3.33;100.00;100359.00;5175411;27;20156;-47
2022/10/11 00:08:04;;;;;;;11.65;5.18;;;;;;;3.27;100.00;100352.84;5175201;27;20054;-46
2022/10/11 00:10:31;;;;;;;16.00;5.82;;;;;;;3.29;100.00;100347.94;5175498;27;20042;-47
2022/10/11 00:12:57;;;;;;;11.70;5.03;;;;;;;3.27;100.00;100360.19;5175127;27;20050;-47
2022/10/11 00:15:24;;;;;;;10.73;5.13;;;;;;;3.27;100.00;100344.72;5175491;27;20115;-46
2022/10/11 00:17:50;;;;;;;10.02;5.90;;;;;;;3.26;100.00;100340.38;5175325;27;20050;-47
2022/10/11 00:20:17;;;;;;;11.20;5.13;;;;;;;3.26;100.00;100348.50;5175408;27;20046;-46
2022/10/11 00:22:44;;;;;;;8.07;4.93;;;;;;;3.27;100.00;100358.28;5175326;27;20050;-46
2022/10/11 00:25:11;;;;;;;11.10;4.78;;;;;;;3.22;100.00;100352.88;5175610;27;20054;-47
2022/10/11 00:27:38;;;;;;;11.90;5.32;;;;;;;3.20;100.00;100352.38;5175677;27;20492;-47
2022/10/11 00:30:06;;;;;;;15.07;5.95;;;;;;;3.17;100.00;100344.81;5175413;27;20370;-47
2022/10/11 00:32:32;;;;;;;11.95;5.40;;;;;;;3.12;100.00;100347.56;5175064;27;20061;-47
2022/10/11 00:35:03;;;;;;;10.75;5.07;;;;;;;3.09;100.00;100341.91;5174888;27;20500;-49
2022/10/11 00:37:30;;;;;;;8.88;5.10;;;;;;;3.03;100.00;100342.00;5174949;27;20042;-46
2022/10/11 00:39:56;;;;;;;11.38;5.70;;;;;;;2.95;100.00;100337.16;5174678;27;20057;-48
2022/10/11 00:42:22;;;;;;;15.45;5.00;;;;;;;2.97;100.00;100336.91;5174636;27;20500;-46
2022/10/11 00:44:50;;;;;;;17.92;5.63;;;;;;;2.91;100.00;100338.03;5174706;27;20050;-47
2022/10/11 00:47:19;;;;;;;9.70;4.43;;;;;;;2.93;100.00;100333.97;5174608;27;20053;-47
2022/10/11 00:49:52;;;;;;;10.38;5.20;;;;;;;2.93;100.00;100333.13;5174556;27;20141;-46
2022/10/11 00:52:27;;;;;;;16.65;5.63;;;;;;;2.87;100.00;100340.50;5174341;27;20070;-46
2022/10/11 00:54:56;;;;;;;10.55;5.47;;;;;;;2.88;100.00;100330.47;5174490;27;20050;-48
2022/10/11 00:57:26;;;;;;;9.45;5.28;;;;;;;2.85;100.00;100329.16;5174762;27;20046;-49
2022/10/11 00:59:55;;;;;;;12.25;6.00;;;;;;;2.82;100.00;100319.69;5174377;27;20180;-48
2022/10/11 01:02:23;;;;;;;10.18;5.35;;;;;;;2.82;100.00;100321.59;5174289;27;20061;-48
2022/10/11 01:04:49;;;;;;;10.18;5.50;;;;;;;2.80;100.00;100319.16;5174400;27;20046;-47
2022/10/11 01:07:18;;;;;;;11.55;5.13;;;;;;;2.80;100.00;100319.16;5174285;27;20382;-45
2022/10/11 01:09:44;;;;;;;9.63;4.93;;;;;;;2.75;100.00;100310.28;5174249;27;20048;-48
2022/10/11 01:12:17;;;;;;;13.73;5.53;;;;;;;2.72;100.00;100316.25;5173915;27;20046;-48
2022/10/11 01:15:06;;;;;;;9.63;5.72;;;;;;;2.73;100.00;100317.88;5174143;27;20417;-47
2022/10/11 01:17:39;;;;;;;11.55;5.53;;;;;;;2.72;100.00;100325.19;5174461;27;20053;-47
2022/10/11 01:20:26;;;;;;;14.57;5.72;;;;;;;2.67;100.00;100311.72;5174167;27;20058;-46
2022/10/11 01:23:30;;;;;;;12.35;5.85;;;;;;;2.77;100.00;100314.31;5174141;27;20046;-46
2022/10/11 01:26:22;;;;;;;14.18;5.85;;;;;;;2.73;100.00;100320.56;5169367;27;20052;-46
2022/10/11 01:28:57;;;;;;;18.65;5.38;;;;;;;2.66;100.00;100312.78;5174071;27;20060;-45
2022/10/11 01:31:29;;;;;;;13.15;4.75;;;;;;;2.70;100.00;100307.59;5173992;27;20102;-45
2022/10/11 01:34:03;;;;;;;9.70;4.57;;;;;;;2.64;100.00;100301.44;5173786;27;20060;-45
2022/10/11 01:36:31;;;;;;;;;;;;;;;2.59;100.00;100301.47;5174519;27;20042;-47
2022/10/11 01:39:03;;;;;;;21.77;7.03;;;;;;;2.56;100.00;100292.00;5173895;27;20431;-48
2022/10/11 01:41:34;;;;;;;14.40;4.90;;;;;;;2.58;100.00;100287.13;5173862;27;20046;-45
2022/10/11 01:44:01;;;;;;;14.77;5.05;;;;;;;2.64;100.00;100296.03;5173782;27;20458;-46
2022/10/11 01:46:29;;;;;;;8.98;4.45;;;;;;;2.67;100.00;100291.94;5173485;27;20097;-45
2022/10/11 01:48:58;;;;;;;8.90;5.22;;;;;;;2.66;100.00;100287.59;5173602;27;20051;-45
2022/10/11 01:51:29;;;;;;;15.48;5.45;;;;;;;2.61;100.00;100287.66;5173755;27;20054;-45
2022/10/11 01:54:10;;;;;;;11.52;5.55;;;;;;;2.63;100.00;100282.75;5173659;27;20502;-46
2022/10/11 01:57:00;;;;;;;10.25;4.65;;;;;;;2.63;100.00;100277.34;5173502;27;20046;-46
2022/10/11 01:59:41;;;;;;;10.52;4.75;;;;;;;2.58;100.00;100270.88;5173231;27;20421;-46
2022/10/11 02:02:23;;;;;;;10.40;5.18;;;;;;;2.51;100.00;100267.72;5173681;27;20045;-46
2022/10/11 02:04:55;;;;;;;12.50;5.35;;;;;;;2.48;100.00;100268.28;5173306;27;20505;-46
2022/10/11 02:07:27;;;;;;;11.48;4.40;;;;;;;2.42;100.00;100263.19;5173591;27;20060;-46
2022/10/11 02:10:02;;;;;;;12.38;5.55;;;;;;;2.45;100.00;100262.63;5173471;27;20129;-45
2022/10/11 02:12:35;;;;;;;14.25;6.07;;;;;;;2.43;100.00;100264.78;5173201;27;20513;-46
2022/10/11 02:15:05;;;;;;;13.88;5.43;;;;;;;2.43;100.00;100259.38;5173198;27;20042;-48
2022/10/11 02:17:37;;;;;;;11.00;5.30;;;;;;;2.40;100.00;100259.94;5173685;27;20046;-45
2022/10/11 02:20:08;;;;;;;13.07;5.40;;;;;;;2.44;100.00;100256.41;5173108;27;20065;-48
2022/10/11 02:22:39;;;;;;;12.65;4.97;;;;;;;2.48;100.00;100245.81;5173166;27;20098;-46
2022/10/11 02:25:09;;;;;;;10.27;4.80;;;;;;;2.50;100.00;100251.75;5172123;27;20046;-46
2022/10/11 02:27:39;;;;;;;11.80;4.82;;;;;;;2.51;100.00;100242.53;5173087;27;20054;-50
2022/10/11 02:30:08;;;;;;;10.02;4.57;;;;;;;2.41;100.00;100248.84;5173246;27;20057;-46
2022/10/11 02:32:40;;;;;;;15.95;5.10;;;;;;;2.60;100.00;100238.13;5173165;27;20119;-46
2022/10/11 02:35:07;;;;;;;12.95;4.90;;;;;;;2.60;100.00;100240.84;5172878;27;20584;-48
2022/10/11 02:37:47;;;;;;;13.05;5.20;;;;;;;2.60;100.00;100243.56;5172997;27;20046;-46
2022/10/11 02:40:20;;;;;;;11.90;4.85;;;;;;;2.66;100.00;100247.78;5172824;27;20056;-46
2022/10/11 02:42:51;;;;;;;11.23;4.60;;;;;;;2.66;100.00;100244.28;5173166;27;20053;-46
2022/10/11 02:45:23;;;;;;;11.75;4.75;;;;;;;2.70;100.00;100242.63;5172560;27;20394;-49
2022/10/11 02:47:50;;;;;;;11.80;5.03;;;;;;;2.69;100.00;100232.88;5172995;27;20113;-46
2022/10/11 02:50:17;;;;;;;11.43;4.63;;;;;;;2.66;100.00;100228.84;5172706;27;20058;-46
2022/10/11 02:52:43;;;;;;;16.98;5.43;;;;;;;2.64;100.00;100239.19;5172861;27;20052;-46
2022/10/11 02:55:10;;;;;;;9.52;4.90;;;;;;;2.67;100.00;100246.72;5172675;27;20050;-48
2022/10/11 02:57:37;;;;;;;16.67;5.10;;;;;;;2.63;100.00;100240.25;5172666;27;20042;-47
2022/10/11 03:00:04;;;;;;;7.10;4.30;;;;;;;2.72;100.00;100243.94;5172639;27;20050;-46
2022/10/11 03:02:30;;;;;;;11.43;4.50;;;;;;;2.74;100.00;100243.69;5172197;27;20046;-46
2022/10/11 03:04:57;;;;;;;12.63;4.82;;;;;;;2.63;100.00;100248.38;5172453;27;20180;-46
2022/10/11 03:07:24;;;;;;;10.23;4.45;;;;;;;2.72;100.00;100246.66;5172444;27;20047;-50
2022/10/11 03:09:50;;;;;;;9.10;4.75;;;;;;;2.70;100.00;100248.03;5172292;27;20046;-48
2022/10/11 03:12:16;;;;;;;10.68;4.63;;;;;;;2.71;100.00;100246.97;5172330;27;20144;-46
2022/10/11 03:14:43;;;;;;;9.88;4.88;;;;;;;2.68;100.00;100247.53;5172356;27;20052;-50
2022/10/11 03:17:09;;;;;;;11.95;5.20;;;;;;;2.66;100.00;100239.69;5172331;27;20061;-50
2022/10/11 03:19:35;;;;;;;17.27;5.82;;;;;;;2.67;100.00;100240.50;5172351;27;20110;-46
2022/10/11 03:22:02;;;;;;;12.93;5.68;;;;;;;2.45;100.00;100239.06;5172108;27;20050;-47
2022/10/11 03:24:28;;;;;;;9.02;5.47;;;;;;;2.64;100.00;100233.75;5172037;27;20053;-46
2022/10/11 03:26:55;;;;;;;23.35;9.82;;;;;;;2.52;100.00;100231.41;5172086;27;20042;-46
2022/10/11 03:29:21;;;;;;;15.25;8.13;;;;;;;2.62;100.00;100224.31;5172177;27;20501;-46
2022/10/11 03:31:47;;;;;;;32.45;12.95;;;;;;;2.78;100.00;100220.34;5172203;27;20054;-46
2022/10/11 03:34:13;;;;;;;46.40;17.33;;;;;;;2.88;100.00;100227.56;5171992;27;20049;-46
2022/10/11 03:36:40;;;;;;;42.58;17.17;;;;;;;2.85;100.00;100236.25;5175040;27;20050;-46
2022/10/11 03:39:06;;;;;;;52.28;19.52;;;;;;;2.81;100.00;100226.00;5175579;27;20524;-46
2022/10/11 03:41:33;;;;;;;55.83;20.73;;;;;;;2.66;100.00;100226.13;5175539;27;20050;-46
2022/10/11 03:43:59;;;;;;;56.05;21.05;;;;;;;2.74;100.00;100222.81;5175724;27;20050;-46
2022/10/11 03:46:25;;;;;;;47.13;17.23;;;;;;;2.54;100.00;100231.94;5176130;27;20487;-47
2022/10/11 03:48:52;;;;;;;36.20;14.40;;;;;;;2.59;100.00;100217.56;5175843;27;20046;-46
2022/10/11 03:51:18;;;;;;;43.08;15.50;;;;;;;2.65;100.00;100211.00;5175789;27;20052;-46
2022/10/11 03:53:44;;;;;;;41.42;16.13;;;;;;;2.67;100.00;100211.53;5175558;27;20047;-47
2022/10/11 03:56:12;;;;;;;35.90;11.93;;;;;;;2.60;100.00;100216.47;5175677;27;20049;-46
2022/10/11 03:58:39;;;;;;;28.13;10.80;;;;;;;2.60;100.00;100208.34;5175612;27;20417;-46
2022/10/11 04:01:05;;;;;;;24.50;9.35;;;;;;;2.50;100.00;100192.19;5175397;27;20050;-47
2022/10/11 04:03:32;;;;;;;20.08;8.07;;;;;;;2.36;100.00;100194.75;5175426;27;20054;-46
2022/10/11 04:05:58;;;;;;;25.45;9.02;;;;;;;2.54;100.00;100180.53;5175271;27;20046;-46
2022/10/11 04:08:24;;;;;;;17.10;7.25;;;;;;;2.60;100.00;100173.16;5175233;27;20425;-46
2022/10/11 04:10:51;;;;;;;15.20;6.60;;;;;;;2.43;100.00;100162.75;5175304;27;20046;-46
2022/10/11 04:13:18;;;;;;;18.33;6.95;;;;;;;2.51;100.00;100155.94;5175126;27;20076;-47
2022/10/11 04:15:44;;;;;;;22.42;6.43;;;;;;;2.45;100.00;100147.03;5175157;27;20057;-46
2022/10/11 04:18:11;;;;;;;8.05;3.78;;;;;;;2.69;100.00;100140.84;5175164;27;20053;-46
2022/10/11 04:20:37;;;;;;;7.28;3.65;;;;;;;2.52;100.00;100146.69;5175058;27;20046;-46
2022/10/11 04:23:04;;;;;;;9.75;4.53;;;;;;;2.76;100.00;100147.50;5174925;27;20141;-46
2022/10/11 04:25:30;;;;;;;14.32;5.10;;;;;;;3.05;100.00;100149.34;5175122;27;20072;-46
2022/10/11 04:27:56;;;;;;;16.15;4.43;;;;;;;3.01;100.00;100151.00;5174739;27;20053;-46
2022/10/11 04:30:23;;;;;;;8.70;4.38;;;;;;;3.04;100.00;100159.38;5175002;27;20409;-46
2022/10/11 04:32:49;;;;;;;13.40;4.38;;;;;;;3.05;100.00;100166.38;5174827;27;20049;-47
2022/10/11 04:35:16;;;;;;;16.23;4.68;;;;;;;3.16;100.00;100168.97;5174870;27;20198;-47
2022/10/11 04:37:42;;;;;;;8.23;4.07;;;;;;;3.15;100.00;100180.91;5175151;27;20569;-46
2022/10/11 04:40:09;;;;;;;13.45;4.50;;;;;;;3.10;100.00;100173.66;5174649;27;20497;-46
2022/10/11 04:42:36;;;;;;;13.82;4.03;;;;;;;3.15;100.00;100180.91;5174745;27;20412;-46
2022/10/11 04:45:02;;;;;;;10.75;4.45;;;;;;;3.30;100.00;100178.00;5174684;27;20070;-47
2022/10/11 04:47:29;;;;;;;14.48;5.45;;;;;;;3.21;100.00;100179.75;5173688;27;20071;-48
2022/10/11 04:49:55;;;;;;;15.05;5.78;;;;;;;3.08;100.00;100186.69;5174493;27;20054;-48
2022/10/11 04:52:21;;;;;;;14.68;4.55;;;;;;;3.37;100.00;100188.50;5174460;27;20065;-47
2022/10/11 04:54:48;;;;;;;9.15;5.68;;;;;;;3.25;100.00;100189.72;5174367;27;20043;-47
2022/10/11 04:57:14;;;;;;;12.00;5.68;;;;;;;3.33;100.00;100192.88;5174402;27;20046;-47
2022/10/11 04:59:40;;;;;;;21.42;7.90;;;;;;;3.52;100.00;100186.38;5174270;27;20105;-46
2022/10/11 05:02:07;;;;;;;22.00;8.15;;;;;;;3.53;100.00;100193.41;5174065;27;20054;-48
2022/10/11 05:04:33;;;;;;;23.95;8.00;;;;;;;3.50;100.00;100187.78;5174462;27;20086;-49
2022/10/11 05:07:00;;;;;;;22.40;7.45;;;;;;;3.63;100.00;100195.19;5174002;27;20370;-51
2022/10/11 05:09:26;;;;;;;36.47;12.70;;;;;;;3.51;100.00;100190.19;5174013;27;20061;-51
2022/10/11 05:11:52;;;;;;;34.60;9.77;;;;;;;3.73;100.00;100194.19;5173929;27;20055;-51
2022/10/11 05:14:18;;;;;;;25.00;8.68;;;;;;;3.73;100.00;100192.31;5174181;27;20424;-49
2022/10/11 05:16:45;;;;;;;21.38;7.47;;;;;;;4.08;100.00;100195.56;5174114;27;20134;-49
2022/10/11 05:19:11;;;;;;;14.75;5.53;;;;;;;4.25;100.00;100182.25;5173813;27;20042;-50
2022/10/11 05:21:38;;;;;;;16.85;5.95;;;;;;;4.94;100.00;100176.91;5174162;27;20514;-47
2022/10/11 05:24:05;;;;;;;18.77;6.35;;;;;;;5.98;100.00;100097.34;5174211;27;20218;-57
2022/10/11 05:26:31;;;;;;;7.82;4.10;;;;;;;6.63;100.00;99853.41;5174075;27;20149;-55
2022/10/11 05:28:58;;;;;;;12.18;5.50;;;;;;;7.01;100.00;99395.53;5174251;27;20069;-57
2022/10/11 05:31:25;;;;;;;13.38;5.00;;;;;;;8.17;100.00;99060.38;5174105;27;20053;-55
2022/10/11 05:33:51;;;;;;;10.32;4.32;;;;;;;8.14;100.00;98807.94;5173923;27;20406;-56
2022/10/11 05:36:17;;;;;;;10.80;4.88;;;;;;;7.92;100.00;98724.00;5174082;27;20050;-56
2022/10/11 05:38:44;;;;;;;9.32;5.40;;;;;;;8.57;100.00;98731.56;5173872;27;20046;-57
2022/10/11 05:41:13;;;;;;;12.52;6.18;;;;;;;8.67;100.00;98742.69;5173971;27;20054;-56
2022/10/11 05:43:39;;;;;;;15.27;6.22;;;;;;;9.56;100.00;98761.75;5173905;27;20077;-57
2022/10/11 05:46:05;;;;;;;12.38;5.57;;;;;;;9.50;100.00;98816.03;5173487;27;20058;-58
2022/10/11 05:48:31;;;;;;;17.05;6.03;;;;;;;9.47;100.00;98854.28;5173700;27;20050;-58
2022/10/11 05:50:59;;;;;;;12.10;4.90;;;;;;;9.92;100.00;98893.72;5173530;27;20042;-55
2022/10/11 05:53:25;;;;;;;9.60;4.28;;;;;;;9.10;100.00;98895.81;5173526;27;20517;-56
2022/10/11 05:55:52;;;;;;;12.93;4.65;;;;;;;10.29;100.00;98877.47;5173338;27;20061;-56
2022/10/11 05:58:19;;;;;;;11.43;4.68;;;;;;;10.31;100.00;98947.19;5172618;27;20106;-55
2022/10/11 06:00:45;;;;;;;13.40;4.90;;;;;;;10.01;100.00;98925.16;5172787;27;20050;-55
2022/10/11 06:03:14;;;;;;;14.50;4.47;;;;;;;10.23;100.00;98914.53;5173550;27;20097;-53
2022/10/11 06:05:40;;;;;;;11.40;3.90;;;;;;;10.81;100.00;98975.31;5173104;27;20053;-52
2022/10/11 06:08:08;;;;;;;11.25;4.45;;;;;;;11.25;100.00;99015.09;5173171;27;20079;-54
2022/10/11 06:10:35;;;;;;;12.10;3.63;;;;;;;11.74;100.00;99060.78;5173402;27;20158;-59
2022/10/11 06:13:02;;;;;;;14.75;5.63;;;;;;;12.31;100.00;99058.63;5173304;27;20050;-57
2022/10/11 06:15:28;;;;;;;13.82;4.50;;;;;;;13.17;100.00;99123.38;5173097;27;20046;-59
2022/10/11 06:17:55;;;;;;;15.35;6.25;;;;;;;13.49;100.00;99157.81;5173133;27;20046;-60
2022/10/11 06:20:21;;;;;;;11.77;3.67;;;;;;;12.51;100.00;99171.16;5172978;27;20133;-56
2022/10/11 06:22:47;;;;;;;17.60;5.35;;;;;;;13.65;100.00;99131.53;5172885;27;20050;-57
2022/10/11 06:25:13;;;;;;;9.65;4.10;;;;;;;12.98;100.00;99148.38;5173026;27;20074;-57
2022/10/11 06:27:40;;;;;;;13.35;4.78;;;;;;;13.59;100.00;99179.91;5172874;27;20046;-58
2022/10/11 06:30:08;;;;;;;14.60;4.75;;;;;;;13.68;100.00;99159.50;5173350;27;20432;-60
2022/10/11 06:32:34;;;;;;;11.25;6.00;;;;;;;12.75;100.00;99142.31;5172817;27;20094;-58
2022/10/11 06:35:02;;;;;;;12.90;3.95;;;;;;;13.37;100.00;99145.16;5172884;27;20169;-58
2022/10/11 06:37:29;;;;;;;12.70;4.30;;;;;;;12.18;100.00;99162.56;5172746;27;20050;-58
2022/10/11 06:39:55;;;;;;;16.38;6.00;;;;;;;13.19;100.00;99137.56;5172774;27;20042;-56
2022/10/11 06:42:21;;;;;;;15.57;4.90;;;;;;;14.90;100.00;99133.84;5172689;27;20537;-58
2022/10/11 06:44:47;;;;;;;11.15;4.32;;;;;;;15.20;100.00;99212.72;5172689;27;20452;-62
2022/10/11 06:47:14;;;;;;;10.88;5.05;;;;;;;15.82;100.00;99170.00;5172556;27;20042;-59
2022/10/11 06:49:41;;;;;;;14.45;3.97;;;;;;;14.59;100.00;99237.47;5172702;27;20082;-61
2022/10/11 06:52:08;;;;;;;10.60;3.83;;;;;;;14.64;100.00;99219.75;5172465;27;20050;-60
2022/10/11 06:54:34;;;;;;;7.85;3.88;;;;;;;13.34;100.00;99170.72;5172468;27;20056;-58
2022/10/11 06:57:01;;;;;;;12.00;5.20;;;;;;;14.21;100.00;99186.50;5172810;27;20046;-59
2022/10/11 06:59:27;;;;;;;10.13;3.42;;;;;;;13.69;100.00;99197.66;5172396;27;20046;-59
2022/10/11 07:01:53;;;;;;;12.93;5.30;;;;;;;14.48;100.00;99179.47;5172404;27;20046;-60
2022/10/11 07:04:20;;;;;;;8.13;3.45;;;;;;;14.72;100.00;99152.34;5172394;27;20102;-57
2022/10/11 07:06:46;;;;;;;6.57;3.10;;;;;;;15.10;100.00;99183.94;5172256;27;20056;-58
2022/10/11 07:09:12;;;;;;;11.43;3.50;;;;;;;14.77;100.00;99198.91;5172242;27;20042;-60
2022/10/11 07:11:39;;;;;;;8.00;3.03;;;;;;;13.48;100.00;99162.53;5171573;27;20082;-58
2022/10/11 07:14:06;;;;;;;9.05;3.38;;;;;;;14.41;100.00;99207.06;5172180;27;20417;-58
2022/10/11 07:16:34;;;;;;;8.43;3.25;;;;;;;13.78;100.00;99161.50;5172170;27;20051;-58
2022/10/11 07:19:01;;;;;;;9.80;4.22;;;;;;;17.15;100.00;99155.00;5172133;27;20050;-57
2022/10/11 07:21:30;;;;;;;8.70;4.55;;;;;;;16.40;100.00;99202.56;5171839;27;20053;-59
2022/10/11 07:23:56;;;;;;;13.23;3.67;;;;;;;14.66;100.00;99195.31;5172085;27;20469;-57
2022/10/11 07:26:22;;;;;;;5.03;2.90;;;;;;;14.07;100.00;99149.44;5172073;27;20421;-59
2022/10/11 07:28:49;;;;;;;11.95;3.10;;;;;;;14.40;100.00;99125.50;5172351;27;20047;-57
2022/10/11 07:31:17;;;;;;;6.28;2.63;;;;;;;14.89;100.00;99159.84;5172040;27;20046;-62
2022/10/11 07:33:44;;;;;;;7.35;2.78;;;;;;;14.74;100.00;99170.09;5172180;27;20103;-63
2022/10/11 07:36:11;;;;;;;6.18;2.33;;;;;;;14.11;100.00;99144.72;5172110;27;20057;-63
2022/10/11 07:38:40;;;;;;;4.10;2.33;;;;;;;14.13;100.00;99120.31;5171905;27;20046;-58
2022/10/11 07:41:07;;;;;;;9.10;2.80;;;;;;;14.59;100.00;99103.09;5171928;27;20493;-61
2022/10/11 07:43:33;;;;;;;10.45;2.65;;;;;;;14.48;100.00;99129.84;5171651;27;20061;-59
2022/10/11 07:46:02;;;;;;;5.70;2.13;;;;;;;13.35;100.00;99089.69;5171771;27;20054;-57
2022/10/11 07:48:29;;;;;;;7.43;3.60;;;;;;;15.80;100.00;99059.88;5171776;27;20081;-61
2022/10/11 07:51:01;;;;;;;9.63;3.95;;;;;;;16.71;100.00;99150.19;5171868;27;20050;-57
2022/10/11 07:53:28;;;;;;;4.72;2.28;;;;;;;15.09;100.00;99174.03;5171631;27;20054;-61
2022/10/11 07:55:54;;;;;;;6.95;2.58;;;;;;;15.95;100.00;99193.28;5171903;27;20097;-57
2022/10/11 07:58:21;;;;;;;3.67;2.28;;;;;;;15.76;100.00;99187.03;5171935;27;20047;-61
2022/10/11 08:00:52;;;;;;;6.72;2.35;;;;;;;16.26;100.00;99222.00;5171596;27;20501;-60
2022/10/11 08:03:18;;;;;;;6.10;2.15;;;;;;;15.85;100.00;99202.38;5171984;27;20057;-60
2022/10/11 08:05:45;;;;;;;7.60;2.45;;;;;;;16.41;100.00;99201.38;5171518;27;20042;-60
2022/10/11 08:08:11;;;;;;;5.38;1.92;;;;;;;16.26;100.00;99190.78;5171766;27;20493;-60
2022/10/11 08:10:38;;;;;;;2.22;1.83;;;;;;;16.40;100.00;99177.66;5171362;27;20050;-60
2022/10/11 08:13:05;;;;;;;4.15;1.83;;;;;;;16.04;100.00;99190.88;5171557;27;20050;-59
2022/10/11 08:15:31;;;;;;;4.88;2.20;;;;;;;15.09;100.00;99151.19;5171511;27;20489;-62
2022/10/11 08:17:57;;;;;;;3.35;1.60;;;;;;;15.28;100.00;99176.41;5171369;27;20053;-61
2022/10/11 08:20:24;;;;;;;3.58;1.90;;;;;;;15.58;100.00;99155.84;5171227;27;20053;-60
2022/10/11 08:22:50;;;;;;;3.40;1.70;;;;;;;15.50;100.00;99160.59;5173134;27;20050;-61
2022/10/11 08:25:17;;;;;;;3.00;1.83;;;;;;;16.16;100.00;99161.97;5174863;27;20042;-62
2022/10/11 08:27:43;;;;;;;4.38;1.60;;;;;;;15.24;100.00;99145.25;5174920;27;20058;-61
2022/10/11 08:30:11;;;;;;;7.10;2.03;;;;;;;16.48;100.00;99136.91;5174890;27;20046;-62
2022/10/11 08:32:38;;;;;;;6.30;2.60;;;;;;;16.68;100.00;99162.84;5174779;27;20050;-61
2022/10/11 08:35:05;;;;;;;3.47;1.60;;;;;;;15.10;100.00;99141.72;5174834;27;20071;-61
2022/10/11 08:37:31;;;;;;;4.38;1.92;;;;;;;15.26;100.00;99123.56;5174925;27;20111;-62
2022/10/11 08:39:58;;;;;;;4.35;1.88;;;;;;;15.72;100.00;99130.16;5175139;27;20137;-61
2022/10/11 08:42:30;;;;;;;4.63;1.52;;;;;;;14.69;100.00;99151.16;5174434;27;20053;-58
2022/10/11 08:45:02;;;;;;;3.72;1.70;;;;;;;15.89;100.00;99145.09;5174696;27;20421;-61
2022/10/11 08:47:33;;;;;;;5.47;1.92;;;;;;;15.09;100.00;99148.41;5174395;27;20046;-63
2022/10/11 08:50:00;;;;;;;4.43;2.10;;;;;;;15.62;100.00;99142.78;5174735;27;20053;-65
2022/10/11 08:52:35;;;;;;;2.22;1.40;;;;;;;15.44;100.00;99140.09;5174545;27;20052;-61
2022/10/11 08:55:05;;;;;;;4.10;1.90;;;;;;;16.13;100.00;99160.81;5174492;27;20500;-59
2022/10/11 08:57:35;;;;;;;3.05;1.73;;;;;;;15.17;100.00;99174.84;5174510;27;20046;-64
2022/10/11 09:00:05;;;;;;;5.22;1.55;;;;;;;15.01;100.00;99122.78;5174643;27;20475;-62
2022/10/11 09:02:40;;;;;;;2.38;1.40;;;;;;;15.39;100.00;99147.97;5174430;27;20056;-63
2022/10/11 09:05:13;;;;;;;7.00;1.83;;;;;;;15.17;100.00;99139.75;5174256;27;20052;-64
2022/10/11 09:07:52;;;;;;;3.35;1.63;;;;;;;14.56;100.00;99100.31;5174385;27;20133;-62
2022/10/11 09:10:47;;;;;;;2.22;1.55;;;;;;;14.14;100.00;99088.03;5174248;27;20051;-62
2022/10/11 09:13:30;;;;;;;5.75;1.58;;;;;;;14.15;100.00;99061.25;5174109;27;20111;-62
2022/10/11 09:16:04;;;;;;;2.58;1.63;;;;;;;13.97;100.00;99045.47;5174127;27;20130;-61
2022/10/11 09:18:45;;;;;;;5.65;2.35;;;;;;;14.16;100.00;99063.63;5174052;27;20053;-61
2022/10/11 09:21:21;;;;;;;3.88;1.38;;;;;;;14.26;100.00;99057.34;5174493;27;20046;-61
2022/10/11 09:24:07;;;;;;;4.95;2.40;;;;;;;14.47;100.00;99070.34;5174090;27;20048;-59
2022/10/11 09:26:40;;;;;;;6.80;2.40;;;;;;;14.80;100.00;99068.41;5174018;27;20137;-59
2022/10/11 09:29:16;;;;;;;3.40;2.03;;;;;;;14.98;100.00;99065.59;5174006;27;20054;-60
2022/10/11 09:31:48;;;;;;;5.22;2.33;;;;;;;16.10;100.00;99088.94;5173933;27;20046;-61
2022/10/11 09:34:15;;;;;;;1.98;1.40;;;;;;;15.63;100.00;99113.22;5173777;27;20218;-62
2022/10/11 09:36:49;;;;;;;3.10;1.65;;;;;;;16.77;100.00;99126.44;5173820;27;20098;-58
2022/10/11 09:39:27;;;;;;;5.28;1.67;;;;;;;16.49;100.00;99110.78;5173717;27;20050;-66
2022/10/11 09:41:58;;;;;;;3.25;1.52;;;;;;;15.32;100.00;99140.50;5173566;27;20109;-66
2022/10/11 09:44:26;;;;;;;1.45;1.20;;;;;;;15.41;100.00;99084.84;5173751;27;20463;-64
2022/10/11 09:46:54;;;;;;;2.13;1.55;;;;;;;15.44;100.00;99082.06;5173798;27;20413;-61
2022/10/11 09:49:27;;;;;;;3.08;1.45;;;;;;;14.68;100.00;99105.44;5173662;27;20398;-63
2022/10/11 09:51:56;;;;;;;4.72;1.52;;;;;;;15.38;100.00;99091.16;5173714;27;20485;-62
2022/10/11 09:54:37;;;;;;;2.20;1.58;;;;;;;14.83;100.00;99086.94;5173457;27;20046;-60
2022/10/11 09:57:03;;;;;;;3.22;1.83;;;;;;;15.29;100.00;99094.34;5173916;27;20046;-59
2022/10/11 09:59:31;;;;;;;3.65;1.40;;;;;;;15.02;100.00;99113.31;5173397;27;20561;-61
2022/10/11 10:02:18;;;;;;;2.85;1.70;;;;;;;15.74;100.00;99095.41;5173345;27;20046;-66
2022/10/11 10:05:12;;;;;;;6.45;2.33;;;;;;;15.75;100.00;99090.66;5173426;27;20046;-61
2022/10/11 10:07:40;;;;;;;;;;;;;;;14.07;100.00;99101.78;5173717;27;20095;-62
2022/10/11 10:10:27;;;;;;;3.80;1.60;;;;;;;14.69;100.00;99057.34;5173758;27;19926;-59
2022/10/11 10:12:55;;;;;;;3.78;2.08;;;;;;;14.51;100.00;99062.88;5172996;27;20046;-59
2022/10/11 10:15:27;;;;;;;7.07;3.53;;;;;;;15.27;100.00;99058.06;5172875;27;20141;-58
2022/10/11 10:17:53;;;;;;;5.18;1.98;;;;;;;14.35;100.00;99082.53;5173322;27;20053;-57
2022/10/11 10:20:23;;;;;;;9.30;1.63;;;;;;;14.96;100.00;99087.28;5173033;27;20137;-58
2022/10/11 10:22:50;;;;;;;2.38;1.52;;;;;;;14.21;100.00;99081.72;5172904;27;20054;-57
2022/10/11 10:25:23;;;;;;;2.90;1.60;;;;;;;14.61;100.00;99069.59;5172894;27;20054;-58
2022/10/11 10:27:57;;;;;;;2.72;1.60;;;;;;;14.51;100.00;99073.13;5173226;27;20094;-61
2022/10/11 10:30:24;;;;;;;5.40;1.73;;;;;;;14.40;100.00;99064.03;5172916;27;20047;-55
2022/10/11 10:32:55;;;;;;;2.75;1.35;;;;;;;14.23;100.00;99068.31;5172938;27;20111;-56
2022/10/11 10:35:34;;;;;;;4.75;2.08;;;;;;;15.43;100.00;99057.63;5172783;27;20140;-57
2022/10/11 10:38:10;;;;;;;6.57;2.42;;;;;;;15.85;100.00;99067.72;5173339;27;20102;-59
2022/10/11 10:40:40;;;;;;;6.72;1.48;;;;;;;15.53;100.00;99076.13;5172947;27;20046;-61
2022/10/11 10:43:15;;;;;;;4.45;2.00;;;;;;;15.44;100.00;99073.78;5172542;27;20141;-60
2022/10/11 10:46:16;;;;;;;9.52;3.90;;;;;;;15.46;100.00;99067.84;5172086;27;20145;-59
2022/10/11 10:48:49;;;;;;;5.22;3.00;;;;;;;15.29;100.00;99091.56;5168165;27;20046;-56
2022/10/11 10:51:26;;;;;;;5.72;2.67;;;;;;;15.40;100.00;99086.81;5172738;27;20057;-59
2022/10/11 10:54:01;;;;;;;10.80;5.00;;;;;;;16.02;100.00;99087.38;5172480;27;20057;-62
2022/10/11 10:56:37;;;;;;;5.43;2.67;;;;;;;15.75;100.00;99087.91;5172384;27;20050;-61
2022/10/11 10:59:18;;;;;;;4.10;2.00;;;;;;;15.46;100.00;99076.13;5172639;27;20053;-56
2022/10/11 11:01:54;;;;;;;6.32;2.28;;;;;;;15.75;100.00;99068.56;5172351;27;20881;-59
2022/10/11 11:04:29;;;;;;;3.30;1.77;;;;;;;16.24;100.00;99067.50;5172397;27;20050;-58
2022/10/11 11:07:03;;;;;;;3.47;2.42;;;;;;;15.87;100.00;99059.81;5172002;27;20050;-59
2022/10/11 11:09:40;;;;;;;8.50;1.55;;;;;;;15.95;100.00;99064.09;5172296;27;20532;-59
2022/10/11 11:12:22;;;;;;;3.10;1.50;;;;;;;15.52;100.00;99022.06;5172319;27;20046;-59
2022/10/11 11:14:57;;;;;;;4.72;2.63;;;;;;;15.95;100.00;99030.16;5172100;27;20052;-60
2022/10/11 11:17:31;;;;;;;4.05;1.63;;;;;;;14.87;100.00;99035.28;5172474;27;20090;-60
2022/10/11 11:20:02;;;;;;;;;;;;;;;14.40;100.00;98995.09;5172422;27;20053;-57
2022/10/11 11:22:43;;;;;;;6.90;2.30;;;;;;;14.29;100.00;99001.38;5172476;27;19933;-57
2022/10/11 11:25:23;;;;;;;4.88;2.50;;;;;;;14.34;100.00;98975.38;5172059;27;20053;-61
2022/10/11 11:28:02;;;;;;;3.35;2.08;;;;;;;14.29;100.00;98945.44;5171930;27;20090;-58
2022/10/11 11:30:36;;;;;;;2.97;1.80;;;;;;;14.44;100.00;98963.56;5172016;27;20053;-60
2022/10/11 11:33:13;;;;;;;5.57;2.38;;;;;;;14.38;100.00;98947.81;5172006;27;20050;-58